sensor_id;sensor_type;location;lat;lon;timestamp;pressure;altitude;pressure_sealevel;temperature;humidity
20889;BME280;10604;51.976;7.594;2023-02-01T00:01:43;101079.50;;;5.89;83.85
20889;BME280;10604;51.976;7.594;2023-02-01T00:04:08;101075.97;;;5.92;83.84
20889;BME280;10604;51.976;7.594;2023-02-01T00:06:34;101075.97;;;5.92;84.08
20889;BME280;10604;51.976;7.594;2023-02-01T00:08:59;101063.66;;;6.09;83.91
20889;BME280;10604;51.976;7.594;2023-02-01T00:11:25;101065.47;;;6.04;83.36
20889;BME280;10604;51.976;7.594;2023-02-01T00:13:51;101069.00;;;5.97;84.15
20889;BME280;10604;51.976;7.594;2023-02-01T00:16:20;101074.19;;;6.03;84.01
20889;BME280;10604;51.976;7.594;2023-02-01T00:18:46;101074.19;;;5.98;84.14
20889;BME280;10604;51.976;7.594;2023-02-01T00:21:14;101074.19;;;6.03;84.79
20889;BME280;10604;51.976;7.594;2023-02-01T00:23:40;101067.25;;;5.96;84.88
20889;BME280;10604;51.976;7.594;2023-02-01T00:26:15;101060.22;;;6.04;85.32
20889;BME280;10604;51.976;7.594;2023-02-01T00:28:41;101052.38;;;6.04;84.91
20889;BME280;10604;51.976;7.594;2023-02-01T00:31:06;101046.22;;;6.05;85.61
20889;BME280;10604;51.976;7.594;2023-02-01T00:33:32;101046.25;;;6.03;85.43
20889;BME280;10604;51.976;7.594;2023-02-01T00:36:03;101046.22;;;6.05;85.25
20889;BME280;10604;51.976;7.594;2023-02-01T00:38:30;101044.41;;;6.16;85.11
20889;BME280;10604;51.976;7.594;2023-02-01T00:41:02;101045.31;;;6.15;85.36
20889;BME280;10604;51.976;7.594;2023-02-01T00:43:28;101036.63;;;6.08;85.70
20889;BME280;10604;51.976;7.594;2023-02-01T00:45:53;101044.53;;;5.98;86.75
20889;BME280;10604;51.976;7.594;2023-02-01T00:48:18;101056.81;;;5.89;87.13
20889;BME280;10604;51.976;7.594;2023-02-01T00:50:44;101045.31;;;6.15;86.44
20889;BME280;10604;51.976;7.594;2023-02-01T00:53:10;101042.69;;;6.15;86.34
20889;BME280;10604;51.976;7.594;2023-02-01T00:55:35;101044.38;;;6.22;85.84
20889;BME280;10604;51.976;7.594;2023-02-01T00:58:00;101044.38;;;6.22;85.64
20889;BME280;10604;51.976;7.594;2023-02-01T01:00:26;101055.75;;;6.18;85.74
20889;BME280;10604;51.976;7.594;2023-02-01T01:02:51;101047.84;;;6.24;85.28
20889;BME280;10604;51.976;7.594;2023-02-01T01:05:17;101044.38;;;6.20;85.13
20889;BME280;10604;51.976;7.594;2023-02-01T01:07:42;101037.38;;;6.22;85.27
20889;BME280;10604;51.976;7.594;2023-02-01T01:10:08;101030.41;;;6.23;85.48
20889;BME280;10604;51.976;7.594;2023-02-01T01:12:33;101032.16;;;6.24;84.83
20889;BME280;10604;51.976;7.594;2023-02-01T01:14:59;101041.66;;;6.33;84.44
20889;BME280;10604;51.976;7.594;2023-02-01T01:17:24;101033.84;;;6.31;84.02
20889;BME280;10604;51.976;7.594;2023-02-01T01:19:50;101048.69;;;6.31;84.12
20889;BME280;10604;51.976;7.594;2023-02-01T01:22:16;101042.53;;;6.33;83.84
20889;BME280;10604;51.976;7.594;2023-02-01T01:24:43;101042.53;;;6.36;83.92
20889;BME280;10604;51.976;7.594;2023-02-01T01:27:09;101037.22;;;6.45;83.40
20889;BME280;10604;51.976;7.594;2023-02-01T01:29:35;101053.81;;;6.46;82.60
20889;BME280;10604;51.976;7.594;2023-02-01T01:32:01;101052.06;;;6.45;82.67
20889;BME280;10604;51.976;7.594;2023-02-01T01:34:27;101051.25;;;6.38;83.33
20889;BME280;10604;51.976;7.594;2023-02-01T01:36:54;101048.44;;;6.56;82.31
20889;BME280;10604;51.976;7.594;2023-02-01T01:39:19;101059.00;;;6.49;82.51
20889;BME280;10604;51.976;7.594;2023-02-01T01:41:44;101057.25;;;6.51;82.52
20889;BME280;10604;51.976;7.594;2023-02-01T01:47:14;101049.56;;;6.28;83.15
20889;BME280;10604;51.976;7.594;2023-02-01T01:49:40;101037.28;;;6.39;83.11
20889;BME280;10604;51.976;7.594;2023-02-01T01:52:06;101031.97;;;6.42;82.13
20889;BME280;10604;51.976;7.594;2023-02-01T01:54:38;101030.28;;;6.37;81.73
20889;BME280;10604;51.976;7.594;2023-02-01T01:57:15;101035.53;;;6.38;82.05
20889;BME280;10604;51.976;7.594;2023-02-01T01:59:48;101025.88;;;6.40;80.95
20889;BME280;10604;51.976;7.594;2023-02-01T02:02:16;101035.41;;;6.47;80.44
20889;BME280;10604;51.976;7.594;2023-02-01T02:04:42;101021.34;;;6.60;79.89
20889;BME280;10604;51.976;7.594;2023-02-01T02:10:27;101005.66;;;6.57;79.54
20889;BME280;10604;51.976;7.594;2023-02-01T02:13:14;101005.66;;;6.57;80.03
20889;BME280;10604;51.976;7.594;2023-02-01T02:15:52;101012.63;;;6.58;79.17
20889;BME280;10604;51.976;7.594;2023-02-01T02:18:32;100999.53;;;6.60;79.14
20889;BME280;10604;51.976;7.594;2023-02-01T02:21:15;101002.97;;;6.65;78.80
20889;BME280;10604;51.976;7.594;2023-02-01T02:35:20;100970.69;;;6.60;78.89
20889;BME280;10604;51.976;7.594;2023-02-01T02:43:05;100955.13;;;6.43;80.03
20889;BME280;10604;51.976;7.594;2023-02-01T02:46:23;100966.41;;;6.51;79.42
20889;BME280;10604;51.976;7.594;2023-02-01T02:49:19;100953.34;;;6.48;79.18
20889;BME280;10604;51.976;7.594;2023-02-01T02:51:54;100955.13;;;6.46;80.15
20889;BME280;10604;51.976;7.594;2023-02-01T02:54:45;100949.03;;;6.40;79.84
20889;BME280;10604;51.976;7.594;2023-02-01T02:57:34;100953.34;;;6.48;80.00
20889;BME280;10604;51.976;7.594;2023-02-01T03:00:22;100950.75;;;6.45;80.24
20889;BME280;10604;51.976;7.594;2023-02-01T03:19:59;100926.88;;;6.73;79.02
20889;BME280;10604;51.976;7.594;2023-02-01T03:22:28;100927.03;;;6.57;79.51
20889;BME280;10604;51.976;7.594;2023-02-01T03:25:07;100926.03;;;6.71;78.84
20889;BME280;10604;51.976;7.594;2023-02-01T03:27:58;100928.66;;;6.71;78.84
20889;BME280;10604;51.976;7.594;2023-02-01T03:30:29;100918.22;;;6.64;79.16
20889;BME280;10604;51.976;7.594;2023-02-01T03:32:59;100916.41;;;6.69;79.38
20889;BME280;10604;51.976;7.594;2023-02-01T03:41:18;100897.34;;;6.58;78.91
20889;BME280;10604;51.976;7.594;2023-02-01T03:43:58;100906.00;;;6.66;79.33
20889;BME280;10604;51.976;7.594;2023-02-01T03:49:27;100900.69;;;6.69;78.92
20889;BME280;10604;51.976;7.594;2023-02-01T03:51:54;100904.19;;;6.68;79.14
20889;BME280;10604;51.976;7.594;2023-02-01T03:54:22;100896.28;;;6.75;78.96
20889;BME280;10604;51.976;7.594;2023-02-01T03:56:50;100900.75;;;6.66;79.02
20889;BME280;10604;51.976;7.594;2023-02-01T03:59:18;100905.00;;;6.75;78.77
20889;BME280;10604;51.976;7.594;2023-02-01T04:01:43;100900.75;;;6.66;79.64
20889;BME280;10604;51.976;7.594;2023-02-01T04:04:10;100917.34;;;6.65;79.98
20889;BME280;10604;51.976;7.594;2023-02-01T04:06:36;100904.19;;;6.68;79.19
20889;BME280;10604;51.976;7.594;2023-02-01T04:09:02;100910.31;;;6.69;79.06
20889;BME280;10604;51.976;7.594;2023-02-01T04:11:27;100911.19;;;6.69;79.34
20889;BME280;10604;51.976;7.594;2023-02-01T04:13:54;100907.75;;;6.64;79.50
20889;BME280;10604;51.976;7.594;2023-02-01T04:16:20;100901.63;;;6.65;79.65
20889;BME280;10604;51.976;7.594;2023-02-01T04:18:45;100890.28;;;6.66;79.27
20889;BME280;10604;51.976;7.594;2023-02-01T04:21:10;100888.47;;;6.68;79.40
20889;BME280;10604;51.976;7.594;2023-02-01T04:23:37;100869.25;;;6.69;79.59
20889;BME280;10604;51.976;7.594;2023-02-01T04:26:04;100883.28;;;6.65;79.19
20889;BME280;10604;51.976;7.594;2023-02-01T04:28:29;100880.59;;;6.68;80.03
20889;BME280;10604;51.976;7.594;2023-02-01T04:30:56;100889.41;;;6.66;79.71
20889;BME280;10604;51.976;7.594;2023-02-01T04:33:21;100881.56;;;6.61;80.26
20889;BME280;10604;51.976;7.594;2023-02-01T04:35:47;100888.53;;;6.65;80.40
20889;BME280;10604;51.976;7.594;2023-02-01T04:38:13;100877.13;;;6.68;80.36
20889;BME280;10604;51.976;7.594;2023-02-01T04:40:39;100858.81;;;6.66;80.32
20889;BME280;10604;51.976;7.594;2023-02-01T04:43:04;100870.28;;;6.55;80.73
20889;BME280;10604;51.976;7.594;2023-02-01T04:45:31;100883.47;;;6.50;80.79
20889;BME280;10604;51.976;7.594;2023-02-01T04:47:56;100879.88;;;6.60;81.07
20889;BME280;10604;51.976;7.594;2023-02-01T04:50:22;100870.22;;;6.61;80.58
20889;BME280;10604;51.976;7.594;2023-02-01T04:52:48;100867.63;;;6.59;80.37
20889;BME280;10604;51.976;7.594;2023-02-01T04:55:14;100850.19;;;6.58;80.71
20889;BME280;10604;51.976;7.594;2023-02-01T04:57:40;100879.88;;;6.57;80.90
20889;BME280;10604;51.976;7.594;2023-02-01T05:00:07;100869.31;;;6.63;80.60
20889;BME280;10604;51.976;7.594;2023-02-01T05:02:33;100880.75;;;6.59;81.07
20889;BME280;10604;51.976;7.594;2023-02-01T05:05:00;100876.25;;;6.69;80.54
20889;BME280;10604;51.976;7.594;2023-02-01T05:07:25;100874.63;;;6.60;80.29
20889;BME280;10604;51.976;7.594;2023-02-01T05:09:50;100881.63;;;6.58;80.82
20889;BME280;10604;51.976;7.594;2023-02-01T05:12:16;100887.72;;;6.59;80.59
20889;BME280;10604;51.976;7.594;2023-02-01T05:15:00;100872.91;;;6.56;81.09
20889;BME280;10604;51.976;7.594;2023-02-01T05:17:26;100862.41;;;6.56;80.58
20889;BME280;10604;51.976;7.594;2023-02-01T05:19:52;100865.91;;;6.55;80.70
20889;BME280;10604;51.976;7.594;2023-02-01T05:22:18;100854.63;;;6.52;81.49
20889;BME280;10604;51.976;7.594;2023-02-01T05:24:44;100852.81;;;6.55;80.73
20889;BME280;10604;51.976;7.594;2023-02-01T05:27:10;100862.47;;;6.53;81.16
20889;BME280;10604;51.976;7.594;2023-02-01T05:29:36;100858.91;;;6.57;80.85
20889;BME280;10604;51.976;7.594;2023-02-01T05:32:01;100858.06;;;6.57;80.79
20889;BME280;10604;51.976;7.594;2023-02-01T05:34:27;100857.09;;;6.62;81.11
20889;BME280;10604;51.976;7.594;2023-02-01T05:36:52;100862.41;;;6.56;81.02
20889;BME280;10604;51.976;7.594;2023-02-01T05:39:17;100847.50;;;6.61;80.80
20889;BME280;10604;51.976;7.594;2023-02-01T05:41:44;100858.91;;;6.60;80.86
20889;BME280;10604;51.976;7.594;2023-02-01T05:44:10;100836.13;;;6.65;80.74
20889;BME280;10604;51.976;7.594;2023-02-01T05:46:36;100843.19;;;6.60;81.55
20889;BME280;10604;51.976;7.594;2023-02-01T05:49:02;100830.91;;;6.62;80.91
20889;BME280;10604;51.976;7.594;2023-02-01T05:51:27;100839.66;;;6.61;81.09
20889;BME280;10604;51.976;7.594;2023-02-01T05:53:53;100844.84;;;6.64;81.03
20889;BME280;10604;51.976;7.594;2023-02-01T05:56:18;100836.13;;;6.65;80.80
20889;BME280;10604;51.976;7.594;2023-02-01T05:58:44;100830.88;;;6.65;80.94
20889;BME280;10604;51.976;7.594;2023-02-01T06:01:09;100837.78;;;6.69;81.17
20889;BME280;10604;51.976;7.594;2023-02-01T06:03:35;100839.63;;;6.64;81.63
20889;BME280;10604;51.976;7.594;2023-02-01T06:06:00;100831.84;;;6.58;81.71
20889;BME280;10604;51.976;7.594;2023-02-01T06:08:26;100834.53;;;6.52;81.73
20889;BME280;10604;51.976;7.594;2023-02-01T06:11:03;100837.97;;;6.54;81.70
20889;BME280;10604;51.976;7.594;2023-02-01T06:13:30;100833.47;;;6.67;81.56
20889;BME280;10604;51.976;7.594;2023-02-01T06:15:56;100833.53;;;6.62;81.30
20889;BME280;10604;51.976;7.594;2023-02-01T06:18:25;100849.31;;;6.59;81.43
20889;BME280;10604;51.976;7.594;2023-02-01T06:20:58;100855.44;;;6.55;81.96
20889;BME280;10604;51.976;7.594;2023-02-01T06:23:26;100865.91;;;6.55;81.21
20889;BME280;10604;51.976;7.594;2023-02-01T06:25:59;100856.22;;;6.62;81.64
20889;BME280;10604;51.976;7.594;2023-02-01T06:28:26;100854.41;;;6.68;81.57
20889;BME280;10604;51.976;7.594;2023-02-01T06:30:52;100865.03;;;6.58;81.23
20889;BME280;10604;51.976;7.594;2023-02-01T06:33:18;100866.75;;;6.60;81.84
20889;BME280;10604;51.976;7.594;2023-02-01T06:35:43;100867.63;;;6.59;81.68
20889;BME280;10604;51.976;7.594;2023-02-01T06:38:10;100860.66;;;6.58;81.75
20889;BME280;10604;51.976;7.594;2023-02-01T06:40:37;100869.31;;;6.63;81.64
20889;BME280;10604;51.976;7.594;2023-02-01T06:43:02;100865.91;;;6.58;81.57
20889;BME280;10604;51.976;7.594;2023-02-01T06:45:27;100871.94;;;6.66;81.48
20889;BME280;10604;51.976;7.594;2023-02-01T06:47:53;100874.53;;;6.66;81.31
20889;BME280;10604;51.976;7.594;2023-02-01T06:50:18;100880.69;;;6.62;81.92
20889;BME280;10604;51.976;7.594;2023-02-01T06:52:43;100877.25;;;6.57;81.60
20889;BME280;10604;51.976;7.594;2023-02-01T06:55:09;100889.47;;;6.60;81.87
20889;BME280;10604;51.976;7.594;2023-02-01T06:57:34;100885.03;;;6.63;81.63
20889;BME280;10604;51.976;7.594;2023-02-01T07:00:02;100895.69;;;6.51;82.00
20889;BME280;10604;51.976;7.594;2023-02-01T07:02:28;100894.72;;;6.60;81.99
20889;BME280;10604;51.976;7.594;2023-02-01T07:04:53;100881.56;;;6.61;81.26
20889;BME280;10604;51.976;7.594;2023-02-01T07:07:19;100892.03;;;6.64;81.58
20889;BME280;10604;51.976;7.594;2023-02-01T07:09:45;100899.88;;;6.64;81.64
20889;BME280;10604;51.976;7.594;2023-02-01T07:12:11;100891.94;;;6.71;81.39
20889;BME280;10604;51.976;7.594;2023-02-01T07:14:36;100897.97;;;6.80;81.40
20889;BME280;10604;51.976;7.594;2023-02-01T07:17:01;100900.66;;;6.73;81.18
20889;BME280;10604;51.976;7.594;2023-02-01T07:19:27;100897.13;;;6.77;81.28
20889;BME280;10604;51.976;7.594;2023-02-01T07:21:52;100912.91;;;6.74;80.92
20889;BME280;10604;51.976;7.594;2023-02-01T07:24:17;100900.66;;;6.73;81.15
20889;BME280;10604;51.976;7.594;2023-02-01T07:26:43;100906.78;;;6.75;81.38
20889;BME280;10604;51.976;7.594;2023-02-01T07:29:08;100923.31;;;6.77;81.26
20889;BME280;10604;51.976;7.594;2023-02-01T07:31:33;100927.63;;;6.84;81.69
20889;BME280;10604;51.976;7.594;2023-02-01T07:33:59;100923.22;;;6.89;80.70
20889;BME280;10604;51.976;7.594;2023-02-01T07:36:25;100927.63;;;6.84;81.06
20889;BME280;10604;51.976;7.594;2023-02-01T07:38:51;100930.31;;;6.78;81.71
20889;BME280;10604;51.976;7.594;2023-02-01T07:41:17;100931.88;;;6.94;81.46
20889;BME280;10604;51.976;7.594;2023-02-01T07:43:43;100929.09;;;7.06;80.94
20889;BME280;10604;51.976;7.594;2023-02-01T07:46:10;100924.81;;;6.99;80.85
20889;BME280;10604;51.976;7.594;2023-02-01T07:48:35;100923.06;;;6.98;81.79
20889;BME280;10604;51.976;7.594;2023-02-01T07:51:07;100930.03;;;7.02;80.96
20889;BME280;10604;51.976;7.594;2023-02-01T07:53:33;100929.97;;;7.05;81.49
20889;BME280;10604;51.976;7.594;2023-02-01T07:55:59;100928.19;;;7.07;81.06
20889;BME280;10604;51.976;7.594;2023-02-01T07:58:25;100938.69;;;7.07;81.04
20889;BME280;10604;51.976;7.594;2023-02-01T08:00:51;100944.75;;;7.11;80.78
20889;BME280;10604;51.976;7.594;2023-02-01T08:03:35;100928.03;;;7.19;80.56
20889;BME280;10604;51.976;7.594;2023-02-01T08:06:01;100942.00;;;7.21;80.43
20889;BME280;10604;51.976;7.594;2023-02-01T08:08:26;100941.94;;;7.27;80.63
20889;BME280;10604;51.976;7.594;2023-02-01T08:10:57;100949.00;;;7.22;80.47
20889;BME280;10604;51.976;7.594;2023-02-01T08:13:22;100938.31;;;7.34;80.05
20889;BME280;10604;51.976;7.594;2023-02-01T08:15:48;100940.19;;;7.26;79.91
20889;BME280;10604;51.976;7.594;2023-02-01T08:18:13;100930.66;;;7.19;79.96
20889;BME280;10604;51.976;7.594;2023-02-01T08:20:41;100934.91;;;7.29;80.03
20889;BME280;10604;51.976;7.594;2023-02-01T08:23:08;100931.41;;;7.30;79.83
20889;BME280;10604;51.976;7.594;2023-02-01T08:25:34;100946.28;;;7.30;79.89
20889;BME280;10604;51.976;7.594;2023-02-01T08:28:01;100949.88;;;7.21;79.91
20889;BME280;10604;51.976;7.594;2023-02-01T08:30:27;100948.81;;;7.34;79.54
20889;BME280;10604;51.976;7.594;2023-02-01T08:32:52;100957.50;;;7.39;80.32
20889;BME280;10604;51.976;7.594;2023-02-01T08:35:18;100948.69;;;7.43;79.25
20889;BME280;10604;51.976;7.594;2023-02-01T08:37:43;100949.63;;;7.39;78.98
20889;BME280;10604;51.976;7.594;2023-02-01T08:40:10;100951.28;;;7.46;79.10
20889;BME280;10604;51.976;7.594;2023-02-01T08:42:35;100945.88;;;7.57;78.86
20889;BME280;10604;51.976;7.594;2023-02-01T08:45:16;100957.28;;;7.55;78.84
20889;BME280;10604;51.976;7.594;2023-02-01T08:47:42;100951.00;;;7.66;78.21
20889;BME280;10604;51.976;7.594;2023-02-01T08:50:08;100951.06;;;7.60;78.51
20889;BME280;10604;51.976;7.594;2023-02-01T08:52:34;100955.47;;;7.60;77.88
20889;BME280;10604;51.976;7.594;2023-02-01T08:54:59;100953.69;;;7.62;78.02
20889;BME280;10604;51.976;7.594;2023-02-01T08:57:25;100955.50;;;7.57;78.32
20889;BME280;10604;51.976;7.594;2023-02-01T08:59:50;100954.53;;;7.64;77.67
20889;BME280;10604;51.976;7.594;2023-02-01T09:02:16;100949.38;;;7.59;78.42
20889;BME280;10604;51.976;7.594;2023-02-01T09:04:42;100956.38;;;7.57;77.70
20889;BME280;10604;51.976;7.594;2023-02-01T09:07:09;100936.91;;;7.73;77.62
20889;BME280;10604;51.976;7.594;2023-02-01T09:09:34;100939.44;;;7.78;77.50
20889;BME280;10604;51.976;7.594;2023-02-01T09:12:00;100941.31;;;7.70;77.15
20889;BME280;10604;51.976;7.594;2023-02-01T09:14:25;100937.69;;;7.77;76.54
20889;BME280;10604;51.976;7.594;2023-02-01T09:16:50;100938.56;;;7.77;77.54
20889;BME280;10604;51.976;7.594;2023-02-01T09:19:16;100938.56;;;7.77;77.24
20889;BME280;10604;51.976;7.594;2023-02-01T09:21:41;100940.97;;;7.91;77.13
20889;BME280;10604;51.976;7.594;2023-02-01T09:24:09;100935.25;;;7.66;77.02
20889;BME280;10604;51.976;7.594;2023-02-01T09:26:35;100928.16;;;7.71;78.00
20889;BME280;10604;51.976;7.594;2023-02-01T09:29:01;100930.88;;;7.67;77.49
20889;BME280;10604;51.976;7.594;2023-02-01T09:31:26;100927.31;;;7.71;77.48
20889;BME280;10604;51.976;7.594;2023-02-01T09:33:51;100935.16;;;7.72;77.80
20889;BME280;10604;51.976;7.594;2023-02-01T09:36:17;100925.47;;;7.76;77.39
20889;BME280;10604;51.976;7.594;2023-02-01T09:38:45;100927.16;;;7.80;77.64
20889;BME280;10604;51.976;7.594;2023-02-01T09:41:42;100905.84;;;7.98;76.97
20889;BME280;10604;51.976;7.594;2023-02-01T09:47:01;100907.31;;;8.14;76.36
20889;BME280;10604;51.976;7.594;2023-02-01T09:49:37;100908.88;;;8.24;75.81
20889;BME280;10604;51.976;7.594;2023-02-01T09:52:08;100914.25;;;8.18;76.40
20889;BME280;10604;51.976;7.594;2023-02-01T09:54:52;100903.47;;;8.37;76.00
20889;BME280;10604;51.976;7.594;2023-02-01T09:57:25;100908.38;;;8.55;75.29
20889;BME280;10604;51.976;7.594;2023-02-01T10:00:27;100916.94;;;8.66;74.77
20889;BME280;10604;51.976;7.594;2023-02-01T10:02:54;100895.50;;;8.84;74.51
20889;BME280;10604;51.976;7.594;2023-02-01T10:05:42;100892.66;;;8.52;73.96
20889;BME280;10604;51.976;7.594;2023-02-01T10:20:23;100908.59;;;8.43;75.21
20889;BME280;10604;51.976;7.594;2023-02-01T10:25:55;100907.94;;;8.29;75.14
20889;BME280;10604;51.976;7.594;2023-02-01T10:28:22;100904.34;;;8.37;75.18
20889;BME280;10604;51.976;7.594;2023-02-01T10:30:52;100908.47;;;8.49;74.46
20889;BME280;10604;51.976;7.594;2023-02-01T10:33:27;100911.97;;;8.51;75.21
20889;BME280;10604;51.976;7.594;2023-02-01T10:36:16;100922.50;;;8.48;74.73
20889;BME280;10604;51.976;7.594;2023-02-01T10:38:45;100917.34;;;8.45;74.67
20889;BME280;10604;51.976;7.594;2023-02-01T10:41:20;100922.47;;;8.51;75.20
20889;BME280;10604;51.976;7.594;2023-02-01T10:43:57;100898.19;;;8.81;73.83
20889;BME280;10604;51.976;7.594;2023-02-01T10:46:23;100890.16;;;8.89;72.87
20889;BME280;10604;51.976;7.594;2023-02-01T10:48:50;100898.41;;;9.14;73.26
20889;BME280;10604;51.976;7.594;2023-02-01T10:51:42;100891.44;;;9.10;73.25
20889;BME280;10604;51.976;7.594;2023-02-01T10:54:20;100903.41;;;8.83;72.51
20889;BME280;10604;51.976;7.594;2023-02-01T10:56:47;100886.16;;;8.70;73.10
20889;BME280;10604;51.976;7.594;2023-02-01T10:59:20;100866.91;;;8.68;72.63
20889;BME280;10604;51.976;7.594;2023-02-01T11:01:49;100848.63;;;8.63;73.39
20889;BME280;10604;51.976;7.594;2023-02-01T11:04:19;100852.91;;;8.67;73.22
20889;BME280;10604;51.976;7.594;2023-02-01T11:07:23;100850.19;;;8.73;73.59
20889;BME280;10604;51.976;7.594;2023-02-01T11:09:54;100855.53;;;8.67;73.50
20889;BME280;10604;51.976;7.594;2023-02-01T11:17:44;100857.53;;;8.56;74.70
20889;BME280;10604;51.976;7.594;2023-02-01T11:20:17;100867.75;;;8.70;74.55
20889;BME280;10604;51.976;7.594;2023-02-01T11:22:48;100863.50;;;8.64;74.83
20889;BME280;10604;51.976;7.594;2023-02-01T11:25:16;100862.81;;;8.53;74.78
20889;BME280;10604;51.976;7.594;2023-02-01T11:27:41;100851.16;;;8.21;75.48
20889;BME280;10604;51.976;7.594;2023-02-01T11:30:13;100841.50;;;8.23;76.91
20889;BME280;10604;51.976;7.594;2023-02-01T11:32:40;100849.47;;;8.17;77.83
20889;BME280;10604;51.976;7.594;2023-02-01T11:35:06;100835.66;;;8.06;78.92
20889;BME280;10604;51.976;7.594;2023-02-01T11:37:40;100815.53;;;8.07;78.61
20889;BME280;10604;51.976;7.594;2023-02-01T11:42:59;100833.03;;;8.08;80.55
20889;BME280;10604;51.976;7.594;2023-02-01T11:47:56;100827.75;;;8.09;81.48
20889;BME280;10604;51.976;7.594;2023-02-01T11:50:45;100828.91;;;7.93;81.58
20889;BME280;10604;51.976;7.594;2023-02-01T12:07:23;100814.16;;;7.32;86.85
20889;BME280;10604;51.976;7.594;2023-02-01T12:12:24;100798.53;;;7.26;88.34
20889;BME280;10604;51.976;7.594;2023-02-01T12:36:21;100777.78;;;7.11;92.04
20889;BME280;10604;51.976;7.594;2023-02-01T12:38:56;100805.63;;;7.21;91.37
20889;BME280;10604;51.976;7.594;2023-02-01T12:46:46;100790.34;;;7.46;92.15
20889;BME280;10604;51.976;7.594;2023-02-01T12:49:22;100777.50;;;7.31;91.18
20889;BME280;10604;51.976;7.594;2023-02-01T12:52:03;100776.44;;;7.39;91.41
20889;BME280;10604;51.976;7.594;2023-02-01T12:57:17;100771.06;;;7.48;92.58
20889;BME280;10604;51.976;7.594;2023-02-01T13:03:03;100781.06;;;7.25;92.34
20889;BME280;10604;51.976;7.594;2023-02-01T13:08:24;100769.09;;;7.09;92.11
20889;BME280;10604;51.976;7.594;2023-02-01T13:11:12;100775.81;;;7.25;92.63
20889;BME280;10604;51.976;7.594;2023-02-01T13:16:37;100747.56;;;7.42;91.87
20889;BME280;10604;51.976;7.594;2023-02-01T13:21:54;100752.78;;;7.45;91.56
20889;BME280;10604;51.976;7.594;2023-02-01T13:26:55;100764.94;;;7.50;90.61
20889;BME280;10604;51.976;7.594;2023-02-01T13:29:23;100742.06;;;7.56;90.20
20889;BME280;10604;51.976;7.594;2023-02-01T13:37:02;100748.69;;;7.77;89.05
20889;BME280;10604;51.976;7.594;2023-02-01T13:42:24;100725.81;;;7.82;88.83
20889;BME280;10604;51.976;7.594;2023-02-01T13:45:05;100725.06;;;7.77;88.04
20889;BME280;10604;51.976;7.594;2023-02-01T13:47:41;100724.91;;;7.84;87.82
20889;BME280;10604;51.976;7.594;2023-02-01T13:55:34;100724.16;;;8.22;85.37
20889;BME280;10604;51.976;7.594;2023-02-01T14:00:41;100731.75;;;8.38;85.68
20889;BME280;10604;51.976;7.594;2023-02-01T14:03:18;100720.97;;;8.50;85.24
20889;BME280;10604;51.976;7.594;2023-02-01T14:08:13;100729.75;;;8.49;84.51
20889;BME280;10604;51.976;7.594;2023-02-01T14:23:46;100733.00;;;8.60;83.67
20889;BME280;10604;51.976;7.594;2023-02-01T14:26:42;100731.50;;;8.50;84.31
20889;BME280;10604;51.976;7.594;2023-02-01T14:30:01;100747.25;;;8.50;84.04
20889;BME280;10604;51.976;7.594;2023-02-01T14:32:25;100737.06;;;8.35;84.23
20889;BME280;10604;51.976;7.594;2023-02-01T14:34:56;100749.94;;;8.47;84.00
20889;BME280;10604;51.976;7.594;2023-02-01T14:37:35;100768.59;;;8.35;84.37
20889;BME280;10604;51.976;7.594;2023-02-01T14:40:03;100767.56;;;8.42;85.03
20889;BME280;10604;51.976;7.594;2023-02-01T14:47:48;100787.84;;;8.37;84.55
20889;BME280;10604;51.976;7.594;2023-02-01T14:52:46;100794.91;;;8.32;86.14
20889;BME280;10604;51.976;7.594;2023-02-01T14:55:20;100803.41;;;8.46;86.60
20889;BME280;10604;51.976;7.594;2023-02-01T14:57:48;100789.31;;;8.50;85.56
20889;BME280;10604;51.976;7.594;2023-02-01T15:00:27;100800.28;;;8.25;85.86
20889;BME280;10604;51.976;7.594;2023-02-01T15:02:55;100786.16;;;8.33;86.27
20889;BME280;10604;51.976;7.594;2023-02-01T15:07:55;100793.34;;;8.21;86.11
20889;BME280;10604;51.976;7.594;2023-02-01T15:10:22;100795.22;;;8.16;85.47
20889;BME280;10604;51.976;7.594;2023-02-01T15:12:48;100801.44;;;8.11;85.35
20889;BME280;10604;51.976;7.594;2023-02-01T15:15:23;100800.47;;;8.16;85.37
20889;BME280;10604;51.976;7.594;2023-02-01T15:17:57;100811.06;;;8.10;86.03
20889;BME280;10604;51.976;7.594;2023-02-01T15:20:27;100799.34;;;8.30;86.16
20889;BME280;10604;51.976;7.594;2023-02-01T15:22:58;100794.81;;;8.38;85.51
20889;BME280;10604;51.976;7.594;2023-02-01T15:25:37;100794.91;;;8.32;84.80
20889;BME280;10604;51.976;7.594;2023-02-01T15:28:04;100797.22;;;8.48;84.81
20889;BME280;10604;51.976;7.594;2023-02-01T15:30:33;100797.91;;;8.58;84.55
20889;BME280;10604;51.976;7.594;2023-02-01T15:35:44;100783.78;;;8.62;83.63
20889;BME280;10604;51.976;7.594;2023-02-01T15:43:24;100768.81;;;8.22;83.66
20889;BME280;10604;51.976;7.594;2023-02-01T15:45:56;100804.78;;;8.19;84.29
20889;BME280;10604;51.976;7.594;2023-02-01T15:48:24;100825.91;;;8.14;83.83
20889;BME280;10604;51.976;7.594;2023-02-01T15:50:52;100814.38;;;8.21;84.33
20889;BME280;10604;51.976;7.594;2023-02-01T15:53:21;100823.28;;;8.14;83.86
20889;BME280;10604;51.976;7.594;2023-02-01T15:55:52;100807.38;;;8.20;83.29
20889;BME280;10604;51.976;7.594;2023-02-01T15:58:20;100830.19;;;8.18;83.56
20889;BME280;10604;51.976;7.594;2023-02-01T16:00:50;100822.41;;;8.14;83.72
20889;BME280;10604;51.976;7.594;2023-02-01T16:06:00;100827.63;;;8.15;83.11
20889;BME280;10604;51.976;7.594;2023-02-01T16:08:28;100821.53;;;8.13;83.53
20889;BME280;10604;51.976;7.594;2023-02-01T16:11:00;100833.63;;;8.23;82.75
20889;BME280;10604;51.976;7.594;2023-02-01T16:13:27;100837.13;;;8.22;82.87
20889;BME280;10604;51.976;7.594;2023-02-01T16:15:52;100843.19;;;8.24;82.90
20889;BME280;10604;51.976;7.594;2023-02-01T16:18:18;100850.34;;;8.18;82.84
20889;BME280;10604;51.976;7.594;2023-02-01T16:20:43;100842.31;;;8.25;82.24
20889;BME280;10604;51.976;7.594;2023-02-01T16:23:09;100844.94;;;8.25;82.36